sensor_id;sensor_type;location;lat;lon;timestamp;temperature;humidity
22544;DHT22;11438;52.044;8.716;2024-03-23T00:55:53;12.10;99.90
22544;DHT22;11438;52.044;8.716;2024-03-23T00:58:18;12.10;99.90
22544;DHT22;11438;52.044;8.716;2024-03-23T01:00:44;12.10;99.90
22544;DHT22;11438;52.044;8.716;2024-03-23T01:03:09;12.10;99.90
22544;DHT22;11438;52.044;8.716;2024-03-23T01:05:35;12.00;99.90
22544;DHT22;11438;52.044;8.716;2024-03-23T01:08:00;12.00;99.90
22544;DHT22;11438;52.044;8.716;2024-03-23T01:10:26;12.00;99.90
22544;DHT22;11438;52.044;8.716;2024-03-23T01:12:51;12.00;99.90
22544;DHT22;11438;52.044;8.716;2024-03-23T01:15:17;12.00;99.90
22544;DHT22;11438;52.044;8.716;2024-03-23T01:17:42;11.90;99.90
22544;DHT22;11438;52.044;8.716;2024-03-23T01:20:08;11.90;99.90
22544;DHT22;11438;52.044;8.716;2024-03-23T01:22:33;11.90;99.90
22544;DHT22;11438;52.044;8.716;2024-03-23T01:24:59;11.90;99.90
22544;DHT22;11438;52.044;8.716;2024-03-23T01:27:24;11.90;99.90
22544;DHT22;11438;52.044;8.716;2024-03-23T01:29:50;11.80;99.90
22544;DHT22;11438;52.044;8.716;2024-03-23T01:32:18;11.80;99.90
22544;DHT22;11438;52.044;8.716;2024-03-23T01:34:44;11.80;99.90
22544;DHT22;11438;52.044;8.716;2024-03-23T01:37:09;11.80;99.90
22544;DHT22;11438;52.044;8.716;2024-03-23T01:39:35;11.80;99.90
22544;DHT22;11438;52.044;8.716;2024-03-23T01:42:00;11.70;99.90
22544;DHT22;11438;52.044;8.716;2024-03-23T01:44:26;11.70;99.90
22544;DHT22;11438;52.044;8.716;2024-03-23T01:46:51;11.70;99.90
22544;DHT22;11438;52.044;8.716;2024-03-23T01:49:17;11.70;99.90
22544;DHT22;11438;52.044;8.716;2024-03-23T01:51:43;11.70;99.90
22544;DHT22;11438;52.044;8.716;2024-03-23T01:54:09;11.70;99.90
22544;DHT22;11438;52.044;8.716;2024-03-23T01:56:35;11.70;99.90
22544;DHT22;11438;52.044;8.716;2024-03-23T01:59:02;11.60;99.90
22544;DHT22;11438;52.044;8.716;2024-03-23T02:01:28;11.60;99.90
22544;DHT22;11438;52.044;8.716;2024-03-23T02:03:53;11.60;99.90
22544;DHT22;11438;52.044;8.716;2024-03-23T02:06:19;11.60;99.90
22544;DHT22;11438;52.044;8.716;2024-03-23T02:08:44;11.60;99.90
22544;DHT22;11438;52.044;8.716;2024-03-23T02:11:10;11.50;99.90
22544;DHT22;11438;52.044;8.716;2024-03-23T02:13:35;11.50;99.90
22544;DHT22;11438;52.044;8.716;2024-03-23T02:16:01;11.50;99.90
22544;DHT22;11438;52.044;8.716;2024-03-23T02:18:27;11.50;99.90
22544;DHT22;11438;52.044;8.716;2024-03-23T02:20:52;11.50;99.90
22544;DHT22;11438;52.044;8.716;2024-03-23T02:23:18;11.40;99.90
22544;DHT22;11438;52.044;8.716;2024-03-23T02:25:44;11.40;99.90
22544;DHT22;11438;52.044;8.716;2024-03-23T02:28:09;11.40;99.90
22544;DHT22;11438;52.044;8.716;2024-03-23T02:30:35;11.30;99.90
22544;DHT22;11438;52.044;8.716;2024-03-23T02:33:01;11.30;99.90
22544;DHT22;11438;52.044;8.716;2024-03-23T02:35:26;11.30;99.90
22544;DHT22;11438;52.044;8.716;2024-03-23T02:37:52;11.30;99.90
22544;DHT22;11438;52.044;8.716;2024-03-23T02:40:19;11.30;99.90
22544;DHT22;11438;52.044;8.716;2024-03-23T02:42:45;11.30;99.90
22544;DHT22;11438;52.044;8.716;2024-03-23T02:45:10;11.20;99.90
22544;DHT22;11438;52.044;8.716;2024-03-23T02:47:36;11.20;99.90
22544;DHT22;11438;52.044;8.716;2024-03-23T02:50:01;11.20;99.90
22544;DHT22;11438;52.044;8.716;2024-03-23T02:52:27;11.20;99.90
22544;DHT22;11438;52.044;8.716;2024-03-23T02:54:52;11.20;99.90
22544;DHT22;11438;52.044;8.716;2024-03-23T02:57:18;11.20;99.90
22544;DHT22;11438;52.044;8.716;2024-03-23T02:59:43;11.20;99.90
22544;DHT22;11438;52.044;8.716;2024-03-23T03:02:09;11.20;99.90
22544;DHT22;11438;52.044;8.716;2024-03-23T03:04:34;11.20;99.90
22544;DHT22;11438;52.044;8.716;2024-03-23T03:07:00;11.20;99.90
22544;DHT22;11438;52.044;8.716;2024-03-23T03:09:25;11.20;99.90
22544;DHT22;11438;52.044;8.716;2024-03-23T03:11:51;11.20;99.90
22544;DHT22;11438;52.044;8.716;2024-03-23T03:14:16;11.20;99.90
22544;DHT22;11438;52.044;8.716;2024-03-23T03:16:42;11.20;99.90
22544;DHT22;11438;52.044;8.716;2024-03-23T03:19:08;11.20;99.90
22544;DHT22;11438;52.044;8.716;2024-03-23T03:21:33;11.20;99.90
22544;DHT22;11438;52.044;8.716;2024-03-23T03:23:59;11.20;99.90
22544;DHT22;11438;52.044;8.716;2024-03-23T03:26:24;11.20;99.90
22544;DHT22;11438;52.044;8.716;2024-03-23T03:28:53;11.20;99.90
22544;DHT22;11438;52.044;8.716;2024-03-23T03:31:18;11.20;99.90
22544;DHT22;11438;52.044;8.716;2024-03-23T03:33:44;11.20;99.90
22544;DHT22;11438;52.044;8.716;2024-03-23T03:36:10;11.20;99.90
22544;DHT22;11438;52.044;8.716;2024-03-23T03:38:36;11.20;99.90
22544;DHT22;11438;52.044;8.716;2024-03-23T03:41:02;11.20;99.90
22544;DHT22;11438;52.044;8.716;2024-03-23T03:43:28;11.20;99.90
22544;DHT22;11438;52.044;8.716;2024-03-23T03:45:54;11.20;99.90
22544;DHT22;11438;52.044;8.716;2024-03-23T03:48:20;11.10;99.90
22544;DHT22;11438;52.044;8.716;2024-03-23T03:50:45;11.10;99.90
22544;DHT22;11438;52.044;8.716;2024-03-23T03:53:11;11.10;99.90
22544;DHT22;11438;52.044;8.716;2024-03-23T03:55:36;11.10;99.90
22544;DHT22;11438;52.044;8.716;2024-03-23T03:58:02;11.00;99.90
22544;DHT22;11438;52.044;8.716;2024-03-23T04:00:27;11.00;99.90
22544;DHT22;11438;52.044;8.716;2024-03-23T04:02:53;11.00;99.90
22544;DHT22;11438;52.044;8.716;2024-03-23T04:05:18;11.00;99.90
22544;DHT22;11438;52.044;8.716;2024-03-23T04:07:45;11.00;99.90
22544;DHT22;11438;52.044;8.716;2024-03-23T04:10:11;11.00;99.90
22544;DHT22;11438;52.044;8.716;2024-03-23T04:12:36;11.00;99.90
22544;DHT22;11438;52.044;8.716;2024-03-23T04:15:02;11.00;99.90
22544;DHT22;11438;52.044;8.716;2024-03-23T04:17:30;10.90;99.90
22544;DHT22;11438;52.044;8.716;2024-03-23T04:19:57;10.90;99.90
22544;DHT22;11438;52.044;8.716;2024-03-23T04:22:23;10.90;99.90
22544;DHT22;11438;52.044;8.716;2024-03-23T04:24:54;10.90;99.90
22544;DHT22;11438;52.044;8.716;2024-03-23T04:27:19;10.90;99.90
22544;DHT22;11438;52.044;8.716;2024-03-23T04:29:49;10.90;99.90
22544;DHT22;11438;52.044;8.716;2024-03-23T04:32:14;10.80;99.90
22544;DHT22;11438;52.044;8.716;2024-03-23T04:34:40;10.80;99.90
22544;DHT22;11438;52.044;8.716;2024-03-23T04:37:06;10.80;99.90
22544;DHT22;11438;52.044;8.716;2024-03-23T04:39:31;10.70;99.90
22544;DHT22;11438;52.044;8.716;2024-03-23T04:41:57;10.70;99.90
22544;DHT22;11438;52.044;8.716;2024-03-23T04:44:22;10.60;99.90
22544;DHT22;11438;52.044;8.716;2024-03-23T04:46:48;10.60;99.90
22544;DHT22;11438;52.044;8.716;2024-03-23T04:49:13;10.60;99.90
22544;DHT22;11438;52.044;8.716;2024-03-23T04:51:39;10.60;99.90
22544;DHT22;11438;52.044;8.716;2024-03-23T04:54:07;10.50;99.90
22544;DHT22;11438;52.044;8.716;2024-03-23T04:56:32;10.50;99.90
22544;DHT22;11438;52.044;8.716;2024-03-23T04:58:58;10.50;99.90
22544;DHT22;11438;52.044;8.716;2024-03-23T05:01:27;10.40;99.90
22544;DHT22;11438;52.044;8.716;2024-03-23T05:03:53;10.40;99.90
22544;DHT22;11438;52.044;8.716;2024-03-23T05:06:18;10.40;99.90
22544;DHT22;11438;52.044;8.716;2024-03-23T05:08:44;10.40;99.90
22544;DHT22;11438;52.044;8.716;2024-03-23T05:11:11;10.30;99.90
22544;DHT22;11438;52.044;8.716;2024-03-23T05:13:36;10.30;99.90
22544;DHT22;11438;52.044;8.716;2024-03-23T05:16:02;10.30;99.90
22544;DHT22;11438;52.044;8.716;2024-03-23T05:18:28;10.30;99.90
22544;DHT22;11438;52.044;8.716;2024-03-23T05:20:58;10.30;99.90
22544;DHT22;11438;52.044;8.716;2024-03-23T05:23:24;10.30;99.90
22544;DHT22;11438;52.044;8.716;2024-03-23T05:25:50;10.30;99.90
22544;DHT22;11438;52.044;8.716;2024-03-23T05:28:16;10.30;99.90
22544;DHT22;11438;52.044;8.716;2024-03-23T05:30:41;10.30;99.90
22544;DHT22;11438;52.044;8.716;2024-03-23T05:33:07;10.30;99.90
22544;DHT22;11438;52.044;8.716;2024-03-23T05:35:33;10.30;99.90
22544;DHT22;11438;52.044;8.716;2024-03-23T05:37:58;10.30;99.90
22544;DHT22;11438;52.044;8.716;2024-03-23T05:40:25;10.30;99.90
22544;DHT22;11438;52.044;8.716;2024-03-23T05:42:51;10.30;99.90
22544;DHT22;11438;52.044;8.716;2024-03-23T05:45:21;10.30;99.90
22544;DHT22;11438;52.044;8.716;2024-03-23T05:47:48;10.30;99.90
22544;DHT22;11438;52.044;8.716;2024-03-23T05:50:13;10.30;99.90
22544;DHT22;11438;52.044;8.716;2024-03-23T05:52:39;10.30;99.90
22544;DHT22;11438;52.044;8.716;2024-03-23T05:55:05;10.30;99.90
22544;DHT22;11438;52.044;8.716;2024-03-23T05:57:31;10.30;99.90
22544;DHT22;11438;52.044;8.716;2024-03-23T05:59:57;10.30;99.90
22544;DHT22;11438;52.044;8.716;2024-03-23T06:02:23;10.30;99.90
22544;DHT22;11438;52.044;8.716;2024-03-23T06:04:49;10.30;99.90
22544;DHT22;11438;52.044;8.716;2024-03-23T06:07:14;10.30;99.90
22544;DHT22;11438;52.044;8.716;2024-03-23T06:09:41;10.30;99.90
22544;DHT22;11438;52.044;8.716;2024-03-23T06:12:07;10.30;99.90
22544;DHT22;11438;52.044;8.716;2024-03-23T06:14:32;10.30;99.90
22544;DHT22;11438;52.044;8.716;2024-03-23T06:16:58;10.30;99.90
22544;DHT22;11438;52.044;8.716;2024-03-23T06:19:25;10.30;99.90
22544;DHT22;11438;52.044;8.716;2024-03-23T06:21:55;10.20;99.90
22544;DHT22;11438;52.044;8.716;2024-03-23T06:24:24;10.20;99.90
22544;DHT22;11438;52.044;8.716;2024-03-23T06:26:50;10.20;99.90
22544;DHT22;11438;52.044;8.716;2024-03-23T06:29:15;10.20;99.90
22544;DHT22;11438;52.044;8.716;2024-03-23T06:31:41;10.20;99.90
22544;DHT22;11438;52.044;8.716;2024-03-23T06:34:06;10.20;99.90
22544;DHT22;11438;52.044;8.716;2024-03-23T06:36:32;10.20;99.90
22544;DHT22;11438;52.044;8.716;2024-03-23T06:38:58;10.20;99.90
22544;DHT22;11438;52.044;8.716;2024-03-23T06:41:24;10.20;99.90
22544;DHT22;11438;52.044;8.716;2024-03-23T06:43:50;10.20;99.90
22544;DHT22;11438;52.044;8.716;2024-03-23T06:46:15;10.20;99.90
22544;DHT22;11438;52.044;8.716;2024-03-23T06:48:41;10.30;99.90
22544;DHT22;11438;52.044;8.716;2024-03-23T06:51:06;10.30;99.90
22544;DHT22;11438;52.044;8.716;2024-03-23T06:53:32;10.30;99.90
22544;DHT22;11438;52.044;8.716;2024-03-23T06:55:58;10.30;99.90
22544;DHT22;11438;52.044;8.716;2024-03-23T06:58:24;10.40;99.90
22544;DHT22;11438;52.044;8.716;2024-03-23T07:00:50;10.40;99.90
22544;DHT22;11438;52.044;8.716;2024-03-23T07:03:19;10.40;99.90
22544;DHT22;11438;52.044;8.716;2024-03-23T07:05:45;10.40;99.90
22544;DHT22;11438;52.044;8.716;2024-03-23T07:08:11;10.40;99.90
22544;DHT22;11438;52.044;8.716;2024-03-23T07:10:40;10.40;99.90
22544;DHT22;11438;52.044;8.716;2024-03-23T07:13:05;10.40;99.90
22544;DHT22;11438;52.044;8.716;2024-03-23T07:15:31;10.40;99.90
22544;DHT22;11438;52.044;8.716;2024-03-23T07:17:56;10.40;99.90
22544;DHT22;11438;52.044;8.716;2024-03-23T07:20:22;10.40;99.90
22544;DHT22;11438;52.044;8.716;2024-03-23T07:22:47;10.40;99.90
22544;DHT22;11438;52.044;8.716;2024-03-23T07:25:13;10.40;99.90
22544;DHT22;11438;52.044;8.716;2024-03-23T07:27:38;10.30;99.90
22544;DHT22;11438;52.044;8.716;2024-03-23T07:30:05;10.40;99.90
22544;DHT22;11438;52.044;8.716;2024-03-23T07:32:30;10.30;99.90
22544;DHT22;11438;52.044;8.716;2024-03-23T07:34:56;10.30;99.90
22544;DHT22;11438;52.044;8.716;2024-03-23T07:37:21;10.30;99.90
22544;DHT22;11438;52.044;8.716;2024-03-23T07:39:47;10.30;99.90
22544;DHT22;11438;52.044;8.716;2024-03-23T07:42:13;10.30;99.90
22544;DHT22;11438;52.044;8.716;2024-03-23T07:44:38;10.40;99.90
22544;DHT22;11438;52.044;8.716;2024-03-23T07:47:04;10.40;99.90
22544;DHT22;11438;52.044;8.716;2024-03-23T07:49:29;10.50;99.90
22544;DHT22;11438;52.044;8.716;2024-03-23T07:51:55;10.50;99.90
22544;DHT22;11438;52.044;8.716;2024-03-23T07:54:20;10.50;99.90
22544;DHT22;11438;52.044;8.716;2024-03-23T07:56:46;10.60;99.90
22544;DHT22;11438;52.044;8.716;2024-03-23T07:59:11;10.60;99.90
22544;DHT22;11438;52.044;8.716;2024-03-23T08:01:37;10.60;99.90
22544;DHT22;11438;52.044;8.716;2024-03-23T08:04:02;10.70;99.90
22544;DHT22;11438;52.044;8.716;2024-03-23T08:06:28;10.80;99.90
22544;DHT22;11438;52.044;8.716;2024-03-23T08:08:57;10.90;99.90
22544;DHT22;11438;52.044;8.716;2024-03-23T08:11:29;10.90;99.90
22544;DHT22;11438;52.044;8.716;2024-03-23T08:13:56;11.00;99.90
22544;DHT22;11438;52.044;8.716;2024-03-23T08:16:22;11.00;99.90
22544;DHT22;11438;52.044;8.716;2024-03-23T08:18:48;11.10;99.90
22544;DHT22;11438;52.044;8.716;2024-03-23T08:21:13;11.10;99.90
22544;DHT22;11438;52.044;8.716;2024-03-23T08:23:39;11.20;99.90
22544;DHT22;11438;52.044;8.716;2024-03-23T08:26:09;11.20;99.90
22544;DHT22;11438;52.044;8.716;2024-03-23T08:28:35;11.30;99.90
22544;DHT22;11438;52.044;8.716;2024-03-23T08:31:03;11.30;99.90
22544;DHT22;11438;52.044;8.716;2024-03-23T08:33:30;11.40;99.90
22544;DHT22;11438;52.044;8.716;2024-03-23T08:35:57;11.40;99.90
22544;DHT22;11438;52.044;8.716;2024-03-23T08:38:26;11.40;99.90
22544;DHT22;11438;52.044;8.716;2024-03-23T08:41:03;11.40;99.90
22544;DHT22;11438;52.044;8.716;2024-03-23T08:43:30;11.50;99.90
22544;DHT22;11438;52.044;8.716;2024-03-23T08:48:32;11.50;99.90
22544;DHT22;11438;52.044;8.716;2024-03-23T08:51:06;11.60;99.90
22544;DHT22;11438;52.044;8.716;2024-03-23T08:53:32;11.60;99.90
22544;DHT22;11438;52.044;8.716;2024-03-23T08:55:59;11.60;99.90
22544;DHT22;11438;52.044;8.716;2024-03-23T08:58:26;11.70;99.90
22544;DHT22;11438;52.044;8.716;2024-03-23T09:00:55;11.70;99.90
22544;DHT22;11438;52.044;8.716;2024-03-23T09:03:25;11.70;99.90
22544;DHT22;11438;52.044;8.716;2024-03-23T09:05:51;11.70;99.90
22544;DHT22;11438;52.044;8.716;2024-03-23T09:08:17;11.80;99.90
22544;DHT22;11438;52.044;8.716;2024-03-23T09:10:43;11.70;99.30
22544;DHT22;11438;52.044;8.716;2024-03-23T09:13:09;11.70;99.50
22544;DHT22;11438;52.044;8.716;2024-03-23T09:15:36;11.80;99.90
22544;DHT22;11438;52.044;8.716;2024-03-23T09:18:02;11.80;99.90
22544;DHT22;11438;52.044;8.716;2024-03-23T09:20:28;11.80;99.90
22544;DHT22;11438;52.044;8.716;2024-03-23T09:22:54;11.80;99.90
22544;DHT22;11438;52.044;8.716;2024-03-23T09:25:19;11.90;99.90
22544;DHT22;11438;52.044;8.716;2024-03-23T09:27:46;11.90;99.10
22544;DHT22;11438;52.044;8.716;2024-03-23T09:30:13;11.90;98.50
22544;DHT22;11438;52.044;8.716;2024-03-23T09:32:38;11.90;97.90
22544;DHT22;11438;52.044;8.716;2024-03-23T09:35:04;11.90;98.10
22544;DHT22;11438;52.044;8.716;2024-03-23T09:37:30;11.90;98.20
22544;DHT22;11438;52.044;8.716;2024-03-23T09:39:55;11.90;98.40
22544;DHT22;11438;52.044;8.716;2024-03-23T09:42:21;11.90;98.10
22544;DHT22;11438;52.044;8.716;2024-03-23T09:44:48;11.90;98.40
22544;DHT22;11438;52.044;8.716;2024-03-23T09:47:16;11.90;98.40
22544;DHT22;11438;52.044;8.716;2024-03-23T09:49:42;11.90;98.50
22544;DHT22;11438;52.044;8.716;2024-03-23T09:52:07;12.00;98.70
22544;DHT22;11438;52.044;8.716;2024-03-23T09:54:33;12.00;99.00
22544;DHT22;11438;52.044;8.716;2024-03-23T09:56:59;12.00;98.90
22544;DHT22;11438;52.044;8.716;2024-03-23T09:59:24;12.10;98.30
22544;DHT22;11438;52.044;8.716;2024-03-23T10:01:52;12.10;98.20
22544;DHT22;11438;52.044;8.716;2024-03-23T10:04:42;12.10;98.40
22544;DHT22;11438;52.044;8.716;2024-03-23T10:07:35;12.10;98.00
22544;DHT22;11438;52.044;8.716;2024-03-23T10:10:10;12.20;98.30
22544;DHT22;11438;52.044;8.716;2024-03-23T10:12:44;12.30;98.00
22544;DHT22;11438;52.044;8.716;2024-03-23T10:15:24;12.40;98.50
22544;DHT22;11438;52.044;8.716;2024-03-23T10:17:50;12.40;97.50
22544;DHT22;11438;52.044;8.716;2024-03-23T10:20:20;12.50;97.80
22544;DHT22;11438;52.044;8.716;2024-03-23T10:22:50;12.50;97.70
22544;DHT22;11438;52.044;8.716;2024-03-23T10:25:17;12.60;97.90
22544;DHT22;11438;52.044;8.716;2024-03-23T10:27:42;12.70;96.90
22544;DHT22;11438;52.044;8.716;2024-03-23T10:30:15;12.60;95.20
22544;DHT22;11438;52.044;8.716;2024-03-23T10:32:41;12.60;94.50
22544;DHT22;11438;52.044;8.716;2024-03-23T10:35:21;12.60;95.20
22544;DHT22;11438;52.044;8.716;2024-03-23T10:37:48;12.70;95.50
22544;DHT22;11438;52.044;8.716;2024-03-23T10:40:15;12.70;95.60
22544;DHT22;11438;52.044;8.716;2024-03-23T10:42:41;12.70;96.10
22544;DHT22;11438;52.044;8.716;2024-03-23T10:45:07;12.80;95.10
22544;DHT22;11438;52.044;8.716;2024-03-23T10:47:35;12.90;95.50
22544;DHT22;11438;52.044;8.716;2024-03-23T10:50:01;13.00;95.70
22544;DHT22;11438;52.044;8.716;2024-03-23T10:52:27;13.00;94.90
22544;DHT22;11438;52.044;8.716;2024-03-23T10:54:53;13.10;94.50
22544;DHT22;11438;52.044;8.716;2024-03-23T10:57:32;13.10;94.50
22544;DHT22;11438;52.044;8.716;2024-03-23T10:59:59;13.00;95.00
22544;DHT22;11438;52.044;8.716;2024-03-23T11:02:27;13.00;94.40
22544;DHT22;11438;52.044;8.716;2024-03-23T11:04:53;13.00;94.80
22544;DHT22;11438;52.044;8.716;2024-03-23T11:07:32;13.00;95.20
22544;DHT22;11438;52.044;8.716;2024-03-23T11:09:58;12.90;95.30
22544;DHT22;11438;52.044;8.716;2024-03-23T11:12:25;13.00;95.20
22544;DHT22;11438;52.044;8.716;2024-03-23T11:15:04;13.00;95.90
22544;DHT22;11438;52.044;8.716;2024-03-23T11:17:31;13.00;95.70
22544;DHT22;11438;52.044;8.716;2024-03-23T11:20:00;13.10;96.00
22544;DHT22;11438;52.044;8.716;2024-03-23T11:25:32;13.20;95.00
22544;DHT22;11438;52.044;8.716;2024-03-23T11:28:11;13.30;93.90
22544;DHT22;11438;52.044;8.716;2024-03-23T11:30:37;13.30;94.00
22544;DHT22;11438;52.044;8.716;2024-03-23T11:33:03;13.40;94.00
22544;DHT22;11438;52.044;8.716;2024-03-23T11:35:34;13.50;94.60
22544;DHT22;11438;52.044;8.716;2024-03-23T11:38:10;13.50;93.30
22544;DHT22;11438;52.044;8.716;2024-03-23T11:40:37;13.50;93.50
22544;DHT22;11438;52.044;8.716;2024-03-23T11:43:05;13.50;93.60
22544;DHT22;11438;52.044;8.716;2024-03-23T11:45:35;13.40;93.30
22544;DHT22;11438;52.044;8.716;2024-03-23T11:48:17;13.30;92.80
22544;DHT22;11438;52.044;8.716;2024-03-23T11:50:46;13.20;93.00
22544;DHT22;11438;52.044;8.716;2024-03-23T11:58:13;12.80;93.80
22544;DHT22;11438;52.044;8.716;2024-03-23T12:00:39;12.70;94.20
22544;DHT22;11438;52.044;8.716;2024-03-23T12:03:05;12.60;94.30
22544;DHT22;11438;52.044;8.716;2024-03-23T12:05:32;12.50;94.30
22544;DHT22;11438;52.044;8.716;2024-03-23T12:11:04;12.40;93.90
22544;DHT22;11438;52.044;8.716;2024-03-23T12:13:30;12.30;94.30
22544;DHT22;11438;52.044;8.716;2024-03-23T12:18:34;12.30;95.10
22544;DHT22;11438;52.044;8.716;2024-03-23T12:21:00;12.30;95.00
22544;DHT22;11438;52.044;8.716;2024-03-23T12:23:25;12.30;94.90
22544;DHT22;11438;52.044;8.716;2024-03-23T12:25:51;12.30;95.00
22544;DHT22;11438;52.044;8.716;2024-03-23T12:28:16;12.30;94.10
22544;DHT22;11438;52.044;8.716;2024-03-23T12:30:42;12.40;94.90
22544;DHT22;11438;52.044;8.716;2024-03-23T12:33:08;12.40;94.40
22544;DHT22;11438;52.044;8.716;2024-03-23T12:35:34;12.40;94.60
22544;DHT22;11438;52.044;8.716;2024-03-23T12:38:00;12.50;94.30
22544;DHT22;11438;52.044;8.716;2024-03-23T12:40:25;12.50;94.90
22544;DHT22;11438;52.044;8.716;2024-03-23T12:42:53;12.50;94.40
22544;DHT22;11438;52.044;8.716;2024-03-23T12:45:18;12.60;94.40
22544;DHT22;11438;52.044;8.716;2024-03-23T12:47:44;12.60;94.00
22544;DHT22;11438;52.044;8.716;2024-03-23T12:50:09;12.60;93.60
22544;DHT22;11438;52.044;8.716;2024-03-23T12:52:36;12.60;93.80
22544;DHT22;11438;52.044;8.716;2024-03-23T12:55:02;12.70;94.60
22544;DHT22;11438;52.044;8.716;2024-03-23T12:57:31;12.60;94.20
22544;DHT22;11438;52.044;8.716;2024-03-23T12:59:56;12.70;93.50
22544;DHT22;11438;52.044;8.716;2024-03-23T13:02:22;12.70;92.80
22544;DHT22;11438;52.044;8.716;2024-03-23T13:04:52;12.70;92.60
22544;DHT22;11438;52.044;8.716;2024-03-23T13:07:18;12.70;92.80
22544;DHT22;11438;52.044;8.716;2024-03-23T13:09:44;12.70;93.30
22544;DHT22;11438;52.044;8.716;2024-03-23T13:12:10;12.70;93.90
22544;DHT22;11438;52.044;8.716;2024-03-23T13:14:40;12.70;93.70
22544;DHT22;11438;52.044;8.716;2024-03-23T13:17:06;12.70;92.20
22544;DHT22;11438;52.044;8.716;2024-03-23T13:19:32;12.80;91.80
22544;DHT22;11438;52.044;8.716;2024-03-23T13:21:59;12.70;92.20
22544;DHT22;11438;52.044;8.716;2024-03-23T13:24:25;12.70;92.60
22544;DHT22;11438;52.044;8.716;2024-03-23T13:26:52;12.80;92.80
22544;DHT22;11438;52.044;8.716;2024-03-23T13:29:19;12.80;92.80
22544;DHT22;11438;52.044;8.716;2024-03-23T13:31:45;12.90;92.60
22544;DHT22;11438;52.044;8.716;2024-03-23T13:34:11;12.90;93.10
22544;DHT22;11438;52.044;8.716;2024-03-23T13:36:36;12.90;93.30
22544;DHT22;11438;52.044;8.716;2024-03-23T13:39:05;12.90;92.90
22544;DHT22;11438;52.044;8.716;2024-03-23T13:41:37;12.80;92.60
22544;DHT22;11438;52.044;8.716;2024-03-23T13:44:02;12.70;92.70
22544;DHT22;11438;52.044;8.716;2024-03-23T13:46:28;12.60;92.90
22544;DHT22;11438;52.044;8.716;2024-03-23T13:48:54;12.50;92.60
22544;DHT22;11438;52.044;8.716;2024-03-23T13:51:24;12.30;92.90
22544;DHT22;11438;52.044;8.716;2024-03-23T13:53:53;12.20;93.00
22544;DHT22;11438;52.044;8.716;2024-03-23T13:56:19;12.10;93.30
22544;DHT22;11438;52.044;8.716;2024-03-23T13:58:45;12.00;93.70
22544;DHT22;11438;52.044;8.716;2024-03-23T14:01:13;11.80;94.20
22544;DHT22;11438;52.044;8.716;2024-03-23T14:03:38;11.70;95.00
22544;DHT22;11438;52.044;8.716;2024-03-23T14:06:04;11.60;95.00
22544;DHT22;11438;52.044;8.716;2024-03-23T14:08:31;11.50;95.20
22544;DHT22;11438;52.044;8.716;2024-03-23T14:10:58;11.50;95.30
22544;DHT22;11438;52.044;8.716;2024-03-23T14:13:24;11.50;95.80
22544;DHT22;11438;52.044;8.716;2024-03-23T14:15:53;11.50;96.10
22544;DHT22;11438;52.044;8.716;2024-03-23T14:18:18;11.50;96.40
22544;DHT22;11438;52.044;8.716;2024-03-23T14:20:44;11.50;96.40
22544;DHT22;11438;52.044;8.716;2024-03-23T14:23:10;11.50;96.70
22544;DHT22;11438;52.044;8.716;2024-03-23T14:25:35;11.60;96.50
22544;DHT22;11438;52.044;8.716;2024-03-23T14:28:01;11.70;96.30
22544;DHT22;11438;52.044;8.716;2024-03-23T14:30:26;11.80;96.60
22544;DHT22;11438;52.044;8.716;2024-03-23T14:32:52;11.90;96.80
22544;DHT22;11438;52.044;8.716;2024-03-23T14:35:17;12.00;95.90
22544;DHT22;11438;52.044;8.716;2024-03-23T14:37:43;12.10;94.90
22544;DHT22;11438;52.044;8.716;2024-03-23T14:40:09;12.20;94.80
22544;DHT22;11438;52.044;8.716;2024-03-23T14:42:36;12.20;94.10
22544;DHT22;11438;52.044;8.716;2024-03-23T14:45:02;12.20;94.40
22544;DHT22;11438;52.044;8.716;2024-03-23T14:47:28;12.20;93.20
22544;DHT22;11438;52.044;8.716;2024-03-23T14:49:53;12.00;93.00
22544;DHT22;11438;52.044;8.716;2024-03-23T14:52:19;11.90;93.10
22544;DHT22;11438;52.044;8.716;2024-03-23T14:54:45;11.80;93.70
22544;DHT22;11438;52.044;8.716;2024-03-23T14:57:11;11.60;94.10
22544;DHT22;11438;52.044;8.716;2024-03-23T14:59:37;11.50;94.40
22544;DHT22;11438;52.044;8.716;2024-03-23T15:02:09;11.50;95.20
22544;DHT22;11438;52.044;8.716;2024-03-23T15:04:34;11.40;95.60
22544;DHT22;11438;52.044;8.716;2024-03-23T15:07:01;11.40;95.60
22544;DHT22;11438;52.044;8.716;2024-03-23T15:09:26;11.40;95.60
22544;DHT22;11438;52.044;8.716;2024-03-23T15:11:52;11.40;95.70
22544;DHT22;11438;52.044;8.716;2024-03-23T15:14:20;11.30;95.80
22544;DHT22;11438;52.044;8.716;2024-03-23T15:16:45;11.30;96.10
22544;DHT22;11438;52.044;8.716;2024-03-23T15:19:14;11.20;96.20
22544;DHT22;11438;52.044;8.716;2024-03-23T15:21:40;11.20;96.30
22544;DHT22;11438;52.044;8.716;2024-03-23T15:24:05;11.20;96.20
22544;DHT22;11438;52.044;8.716;2024-03-23T15:26:31;11.10;95.70
22544;DHT22;11438;52.044;8.716;2024-03-23T15:28:58;11.10;95.70
22544;DHT22;11438;52.044;8.716;2024-03-23T15:31:24;11.00;95.50
22544;DHT22;11438;52.044;8.716;2024-03-23T15:33:49;10.90;95.90
22544;DHT22;11438;52.044;8.716;2024-03-23T15:36:15;10.90;96.70
22544;DHT22;11438;52.044;8.716;2024-03-23T15:38:41;10.90;97.50
22544;DHT22;11438;52.044;8.716;2024-03-23T15:41:07;11.00;97.90
22544;DHT22;11438;52.044;8.716;2024-03-23T15:43:33;11.10;98.30
22544;DHT22;11438;52.044;8.716;2024-03-23T15:46:03;11.20;98.00
22544;DHT22;11438;52.044;8.716;2024-03-23T15:48:29;11.30;98.00
22544;DHT22;11438;52.044;8.716;2024-03-23T15:51:00;11.50;98.60
22544;DHT22;11438;52.044;8.716;2024-03-23T15:53:26;11.80;98.40
22544;DHT22;11438;52.044;8.716;2024-03-23T15:55:58;12.10;98.40
22544;DHT22;11438;52.044;8.716;2024-03-23T15:58:24;12.40;98.20
22544;DHT22;11438;52.044;8.716;2024-03-23T16:01:00;12.70;98.10
22544;DHT22;11438;52.044;8.716;2024-03-23T16:03:26;13.00;97.30
22544;DHT22;11438;52.044;8.716;2024-03-23T16:05:57;13.20;97.20
22544;DHT22;11438;52.044;8.716;2024-03-23T16:08:23;13.40;96.90
22544;DHT22;11438;52.044;8.716;2024-03-23T16:10:49;13.60;96.50
22544;DHT22;11438;52.044;8.716;2024-03-23T16:13:15;13.70;95.90
22544;DHT22;11438;52.044;8.716;2024-03-23T16:15:41;13.70;95.50
22544;DHT22;11438;52.044;8.716;2024-03-23T16:18:07;13.70;95.00
22544;DHT22;11438;52.044;8.716;2024-03-23T16:20:32;13.70;94.90
22544;DHT22;11438;52.044;8.716;2024-03-23T16:23:02;13.70;94.60
22544;DHT22;11438;52.044;8.716;2024-03-23T16:25:28;13.60;94.50
22544;DHT22;11438;52.044;8.716;2024-03-23T16:27:54;13.50;94.50
22544;DHT22;11438;52.044;8.716;2024-03-23T16:30:20;13.40;94.70
22544;DHT22;11438;52.044;8.716;2024-03-23T16:32:49;13.30;94.80
22544;DHT22;11438;52.044;8.716;2024-03-23T16:35:14;13.10;95.00
22544;DHT22;11438;52.044;8.716;2024-03-23T16:37:41;13.00;95.00